sensor_id;sensor_type;location;lat;lon;timestamp;P1;durP1;ratioP1;P2;durP2;ratioP2
37535;SDS011;23379;51.554;6.736;2023-12-04T00:01:24;24.02;;;11.90;;
37535;SDS011;23379;51.554;6.736;2023-12-04T00:03:51;24.40;;;11.38;;
37535;SDS011;23379;51.554;6.736;2023-12-04T00:06:16;34.28;;;11.57;;
37535;SDS011;23379;51.554;6.736;2023-12-04T00:08:42;24.90;;;11.65;;
37535;SDS011;23379;51.554;6.736;2023-12-04T00:11:07;22.77;;;11.98;;
37535;SDS011;23379;51.554;6.736;2023-12-04T00:13:33;27.58;;;11.80;;
37535;SDS011;23379;51.554;6.736;2023-12-04T00:15:58;22.05;;;11.70;;
37535;SDS011;23379;51.554;6.736;2023-12-04T00:18:24;21.75;;;11.43;;
37535;SDS011;23379;51.554;6.736;2023-12-04T00:20:49;20.83;;;11.85;;
37535;SDS011;23379;51.554;6.736;2023-12-04T00:23:15;23.50;;;10.75;;
37535;SDS011;23379;51.554;6.736;2023-12-04T00:25:40;21.77;;;11.35;;
37535;SDS011;23379;51.554;6.736;2023-12-04T00:28:06;20.25;;;11.07;;
37535;SDS011;23379;51.554;6.736;2023-12-04T00:30:31;22.50;;;11.35;;
37535;SDS011;23379;51.554;6.736;2023-12-04T00:32:56;25.23;;;12.15;;
37535;SDS011;23379;51.554;6.736;2023-12-04T00:35:22;22.15;;;11.13;;
37535;SDS011;23379;51.554;6.736;2023-12-04T00:37:47;23.00;;;11.30;;
37535;SDS011;23379;51.554;6.736;2023-12-04T00:40:13;21.38;;;10.85;;
37535;SDS011;23379;51.554;6.736;2023-12-04T00:42:38;20.95;;;11.45;;
37535;SDS011;23379;51.554;6.736;2023-12-04T00:45:03;21.20;;;10.93;;
37535;SDS011;23379;51.554;6.736;2023-12-04T00:47:29;22.48;;;10.90;;
37535;SDS011;23379;51.554;6.736;2023-12-04T00:49:55;19.35;;;10.02;;
37535;SDS011;23379;51.554;6.736;2023-12-04T00:52:20;20.23;;;10.73;;
37535;SDS011;23379;51.554;6.736;2023-12-04T00:54:45;18.83;;;10.77;;
37535;SDS011;23379;51.554;6.736;2023-12-04T00:57:11;19.15;;;10.30;;
37535;SDS011;23379;51.554;6.736;2023-12-04T00:59:36;21.45;;;10.70;;
37535;SDS011;23379;51.554;6.736;2023-12-04T01:02:01;19.58;;;11.02;;
37535;SDS011;23379;51.554;6.736;2023-12-04T01:04:27;19.80;;;10.68;;
37535;SDS011;23379;51.554;6.736;2023-12-04T01:06:52;17.80;;;9.48;;
37535;SDS011;23379;51.554;6.736;2023-12-04T01:09:18;23.42;;;10.52;;
37535;SDS011;23379;51.554;6.736;2023-12-04T01:11:43;20.05;;;9.90;;
37535;SDS011;23379;51.554;6.736;2023-12-04T01:14:08;15.98;;;9.52;;
37535;SDS011;23379;51.554;6.736;2023-12-04T01:16:34;14.30;;;9.43;;
37535;SDS011;23379;51.554;6.736;2023-12-04T01:18:59;19.95;;;10.27;;
37535;SDS011;23379;51.554;6.736;2023-12-04T01:21:24;20.00;;;10.20;;
37535;SDS011;23379;51.554;6.736;2023-12-04T01:23:50;22.48;;;10.75;;
37535;SDS011;23379;51.554;6.736;2023-12-04T01:26:15;18.10;;;10.25;;
37535;SDS011;23379;51.554;6.736;2023-12-04T01:28:41;15.23;;;9.13;;
37535;SDS011;23379;51.554;6.736;2023-12-04T01:31:06;19.48;;;9.80;;
37535;SDS011;23379;51.554;6.736;2023-12-04T01:33:31;17.95;;;9.93;;
37535;SDS011;23379;51.554;6.736;2023-12-04T01:35:57;20.58;;;10.57;;
37535;SDS011;23379;51.554;6.736;2023-12-04T01:38:22;18.42;;;9.85;;
37535;SDS011;23379;51.554;6.736;2023-12-04T01:40:48;18.13;;;9.73;;
37535;SDS011;23379;51.554;6.736;2023-12-04T01:43:13;17.55;;;9.85;;
37535;SDS011;23379;51.554;6.736;2023-12-04T01:45:39;17.92;;;9.98;;
37535;SDS011;23379;51.554;6.736;2023-12-04T01:48:05;19.83;;;9.80;;
37535;SDS011;23379;51.554;6.736;2023-12-04T01:50:33;19.02;;;9.38;;
37535;SDS011;23379;51.554;6.736;2023-12-04T01:52:59;15.63;;;9.13;;
37535;SDS011;23379;51.554;6.736;2023-12-04T01:58:14;17.27;;;9.27;;
37535;SDS011;23379;51.554;6.736;2023-12-04T02:00:39;16.63;;;8.80;;
37535;SDS011;23379;51.554;6.736;2023-12-04T02:03:05;14.10;;;8.27;;
37535;SDS011;23379;51.554;6.736;2023-12-04T02:05:32;16.80;;;8.68;;
37535;SDS011;23379;51.554;6.736;2023-12-04T02:07:58;13.90;;;8.57;;
37535;SDS011;23379;51.554;6.736;2023-12-04T02:10:25;14.27;;;8.27;;
37535;SDS011;23379;51.554;6.736;2023-12-04T02:12:50;16.55;;;9.15;;
37535;SDS011;23379;51.554;6.736;2023-12-04T02:15:15;16.92;;;9.10;;
37535;SDS011;23379;51.554;6.736;2023-12-04T02:17:41;15.70;;;8.27;;
37535;SDS011;23379;51.554;6.736;2023-12-04T02:20:08;14.85;;;8.35;;
37535;SDS011;23379;51.554;6.736;2023-12-04T02:22:34;16.00;;;9.15;;
37535;SDS011;23379;51.554;6.736;2023-12-04T02:24:59;15.82;;;7.90;;
37535;SDS011;23379;51.554;6.736;2023-12-04T02:27:26;13.40;;;8.88;;
37535;SDS011;23379;51.554;6.736;2023-12-04T02:29:58;14.65;;;8.70;;
37535;SDS011;23379;51.554;6.736;2023-12-04T02:32:24;15.40;;;8.95;;
37535;SDS011;23379;51.554;6.736;2023-12-04T02:34:53;14.10;;;8.98;;
37535;SDS011;23379;51.554;6.736;2023-12-04T02:37:20;15.18;;;8.65;;
37535;SDS011;23379;51.554;6.736;2023-12-04T02:39:47;10.60;;;7.38;;
37535;SDS011;23379;51.554;6.736;2023-12-04T02:42:14;12.32;;;7.97;;
37535;SDS011;23379;51.554;6.736;2023-12-04T02:44:42;15.20;;;8.13;;
37535;SDS011;23379;51.554;6.736;2023-12-04T02:47:07;13.68;;;7.25;;
37535;SDS011;23379;51.554;6.736;2023-12-04T02:49:33;15.48;;;8.55;;
37535;SDS011;23379;51.554;6.736;2023-12-04T02:51:58;14.15;;;8.20;;
37535;SDS011;23379;51.554;6.736;2023-12-04T02:54:23;15.77;;;8.10;;
37535;SDS011;23379;51.554;6.736;2023-12-04T02:56:49;13.88;;;7.78;;
37535;SDS011;23379;51.554;6.736;2023-12-04T02:59:15;16.08;;;8.50;;
37535;SDS011;23379;51.554;6.736;2023-12-04T03:01:40;12.00;;;6.97;;
37535;SDS011;23379;51.554;6.736;2023-12-04T03:04:05;14.05;;;8.13;;
37535;SDS011;23379;51.554;6.736;2023-12-04T03:06:31;14.65;;;8.05;;
37535;SDS011;23379;51.554;6.736;2023-12-04T03:08:56;12.90;;;7.95;;
37535;SDS011;23379;51.554;6.736;2023-12-04T03:11:24;12.52;;;7.97;;
37535;SDS011;23379;51.554;6.736;2023-12-04T03:13:49;15.30;;;7.63;;
37535;SDS011;23379;51.554;6.736;2023-12-04T03:16:18;12.25;;;6.97;;
37535;SDS011;23379;51.554;6.736;2023-12-04T03:18:44;12.93;;;7.65;;
37535;SDS011;23379;51.554;6.736;2023-12-04T03:21:09;15.65;;;7.57;;
37535;SDS011;23379;51.554;6.736;2023-12-04T03:23:35;12.25;;;7.47;;
37535;SDS011;23379;51.554;6.736;2023-12-04T03:26:01;14.10;;;7.88;;
37535;SDS011;23379;51.554;6.736;2023-12-04T03:28:26;10.65;;;6.72;;
37535;SDS011;23379;51.554;6.736;2023-12-04T03:30:51;11.90;;;7.35;;
37535;SDS011;23379;51.554;6.736;2023-12-04T03:33:17;13.75;;;7.28;;
37535;SDS011;23379;51.554;6.736;2023-12-04T03:35:42;14.55;;;7.35;;
37535;SDS011;23379;51.554;6.736;2023-12-04T03:38:08;12.27;;;7.65;;
37535;SDS011;23379;51.554;6.736;2023-12-04T03:40:33;13.00;;;7.40;;
37535;SDS011;23379;51.554;6.736;2023-12-04T03:42:59;12.02;;;7.55;;
37535;SDS011;23379;51.554;6.736;2023-12-04T03:45:24;11.63;;;6.65;;
37535;SDS011;23379;51.554;6.736;2023-12-04T03:47:49;11.40;;;6.78;;
37535;SDS011;23379;51.554;6.736;2023-12-04T03:50:15;13.88;;;7.20;;
37535;SDS011;23379;51.554;6.736;2023-12-04T03:52:40;11.80;;;7.22;;
37535;SDS011;23379;51.554;6.736;2023-12-04T03:55:06;13.50;;;7.75;;
37535;SDS011;23379;51.554;6.736;2023-12-04T03:57:33;11.38;;;7.22;;
37535;SDS011;23379;51.554;6.736;2023-12-04T03:59:58;12.95;;;7.05;;
37535;SDS011;23379;51.554;6.736;2023-12-04T04:02:23;11.60;;;6.43;;
37535;SDS011;23379;51.554;6.736;2023-12-04T04:04:48;10.70;;;6.85;;
37535;SDS011;23379;51.554;6.736;2023-12-04T04:07:15;9.82;;;6.72;;
37535;SDS011;23379;51.554;6.736;2023-12-04T04:09:41;11.05;;;6.53;;
37535;SDS011;23379;51.554;6.736;2023-12-04T04:12:06;13.68;;;6.95;;
37535;SDS011;23379;51.554;6.736;2023-12-04T04:14:32;11.70;;;6.13;;
37535;SDS011;23379;51.554;6.736;2023-12-04T04:16:57;9.93;;;6.15;;
37535;SDS011;23379;51.554;6.736;2023-12-04T04:19:22;10.48;;;6.20;;
37535;SDS011;23379;51.554;6.736;2023-12-04T04:21:48;10.27;;;6.28;;
37535;SDS011;23379;51.554;6.736;2023-12-04T04:24:13;10.93;;;6.80;;
37535;SDS011;23379;51.554;6.736;2023-12-04T04:26:38;13.25;;;6.32;;
37535;SDS011;23379;51.554;6.736;2023-12-04T04:29:04;8.23;;;5.38;;
37535;SDS011;23379;51.554;6.736;2023-12-04T04:31:29;10.23;;;6.65;;
37535;SDS011;23379;51.554;6.736;2023-12-04T04:33:55;9.45;;;5.57;;
37535;SDS011;23379;51.554;6.736;2023-12-04T04:36:20;8.43;;;5.57;;
37535;SDS011;23379;51.554;6.736;2023-12-04T04:38:45;8.68;;;6.20;;
37535;SDS011;23379;51.554;6.736;2023-12-04T04:41:14;10.95;;;6.38;;
37535;SDS011;23379;51.554;6.736;2023-12-04T04:46:08;11.27;;;5.78;;
37535;SDS011;23379;51.554;6.736;2023-12-04T04:48:34;9.98;;;5.75;;
37535;SDS011;23379;51.554;6.736;2023-12-04T04:50:59;8.07;;;5.30;;
37535;SDS011;23379;51.554;6.736;2023-12-04T04:53:24;8.60;;;5.60;;
37535;SDS011;23379;51.554;6.736;2023-12-04T04:55:50;9.75;;;5.72;;
37535;SDS011;23379;51.554;6.736;2023-12-04T04:58:15;6.45;;;5.22;;
37535;SDS011;23379;51.554;6.736;2023-12-04T05:00:41;9.02;;;5.45;;
37535;SDS011;23379;51.554;6.736;2023-12-04T05:03:07;9.10;;;5.55;;
37535;SDS011;23379;51.554;6.736;2023-12-04T05:05:32;8.55;;;5.47;;
37535;SDS011;23379;51.554;6.736;2023-12-04T05:07:57;8.13;;;5.35;;
37535;SDS011;23379;51.554;6.736;2023-12-04T05:10:23;8.13;;;5.45;;
37535;SDS011;23379;51.554;6.736;2023-12-04T05:12:48;6.05;;;4.97;;
37535;SDS011;23379;51.554;6.736;2023-12-04T05:15:13;9.70;;;5.63;;
37535;SDS011;23379;51.554;6.736;2023-12-04T05:17:39;8.32;;;5.75;;
37535;SDS011;23379;51.554;6.736;2023-12-04T05:20:05;8.60;;;5.20;;
37535;SDS011;23379;51.554;6.736;2023-12-04T05:22:31;11.05;;;5.38;;
37535;SDS011;23379;51.554;6.736;2023-12-04T05:24:56;10.68;;;5.63;;
37535;SDS011;23379;51.554;6.736;2023-12-04T05:27:22;10.20;;;5.32;;
37535;SDS011;23379;51.554;6.736;2023-12-04T05:29:47;13.77;;;5.53;;
37535;SDS011;23379;51.554;6.736;2023-12-04T05:32:12;8.35;;;5.53;;
37535;SDS011;23379;51.554;6.736;2023-12-04T05:34:38;7.70;;;5.35;;
37535;SDS011;23379;51.554;6.736;2023-12-04T05:37:03;9.23;;;5.38;;
37535;SDS011;23379;51.554;6.736;2023-12-04T05:39:28;8.30;;;5.05;;
37535;SDS011;23379;51.554;6.736;2023-12-04T05:41:54;11.00;;;5.82;;
37535;SDS011;23379;51.554;6.736;2023-12-04T05:44:20;9.27;;;5.30;;
37535;SDS011;23379;51.554;6.736;2023-12-04T05:46:45;7.90;;;5.65;;
37535;SDS011;23379;51.554;6.736;2023-12-04T05:49:10;6.43;;;5.10;;
37535;SDS011;23379;51.554;6.736;2023-12-04T05:51:36;7.15;;;5.05;;
37535;SDS011;23379;51.554;6.736;2023-12-04T05:54:01;7.88;;;5.40;;
37535;SDS011;23379;51.554;6.736;2023-12-04T05:56:26;8.38;;;5.40;;
37535;SDS011;23379;51.554;6.736;2023-12-04T05:58:51;7.18;;;5.75;;
37535;SDS011;23379;51.554;6.736;2023-12-04T06:01:17;10.48;;;5.68;;
37535;SDS011;23379;51.554;6.736;2023-12-04T06:03:42;7.72;;;5.15;;
37535;SDS011;23379;51.554;6.736;2023-12-04T06:06:07;8.43;;;5.97;;
37535;SDS011;23379;51.554;6.736;2023-12-04T06:08:33;8.90;;;5.78;;
37535;SDS011;23379;51.554;6.736;2023-12-04T06:10:58;11.43;;;5.88;;
37535;SDS011;23379;51.554;6.736;2023-12-04T06:13:23;9.05;;;5.50;;
37535;SDS011;23379;51.554;6.736;2023-12-04T06:15:49;8.85;;;5.43;;
37535;SDS011;23379;51.554;6.736;2023-12-04T06:18:14;9.23;;;5.93;;
37535;SDS011;23379;51.554;6.736;2023-12-04T06:20:40;9.80;;;5.47;;
37535;SDS011;23379;51.554;6.736;2023-12-04T06:23:05;8.43;;;5.38;;
37535;SDS011;23379;51.554;6.736;2023-12-04T06:25:30;9.13;;;6.20;;
37535;SDS011;23379;51.554;6.736;2023-12-04T06:27:56;10.00;;;6.05;;
37535;SDS011;23379;51.554;6.736;2023-12-04T06:30:22;8.75;;;5.93;;
37535;SDS011;23379;51.554;6.736;2023-12-04T06:32:47;10.82;;;6.38;;
37535;SDS011;23379;51.554;6.736;2023-12-04T06:35:13;9.07;;;6.18;;
37535;SDS011;23379;51.554;6.736;2023-12-04T06:37:40;8.77;;;5.55;;
37535;SDS011;23379;51.554;6.736;2023-12-04T06:40:05;11.05;;;6.20;;
37535;SDS011;23379;51.554;6.736;2023-12-04T06:42:33;9.50;;;6.10;;
37535;SDS011;23379;51.554;6.736;2023-12-04T06:45:02;11.07;;;6.20;;
37535;SDS011;23379;51.554;6.736;2023-12-04T06:47:28;14.82;;;6.85;;
37535;SDS011;23379;51.554;6.736;2023-12-04T06:49:56;9.52;;;6.32;;
37535;SDS011;23379;51.554;6.736;2023-12-04T06:52:22;9.57;;;5.75;;
37535;SDS011;23379;51.554;6.736;2023-12-04T06:54:47;8.88;;;6.20;;
37535;SDS011;23379;51.554;6.736;2023-12-04T06:57:12;9.60;;;6.05;;
37535;SDS011;23379;51.554;6.736;2023-12-04T06:59:39;9.25;;;6.05;;
37535;SDS011;23379;51.554;6.736;2023-12-04T07:02:08;10.80;;;6.05;;
37535;SDS011;23379;51.554;6.736;2023-12-04T07:04:33;14.65;;;7.50;;
37535;SDS011;23379;51.554;6.736;2023-12-04T07:06:59;10.68;;;6.80;;
37535;SDS011;23379;51.554;6.736;2023-12-04T07:09:29;10.23;;;6.00;;
37535;SDS011;23379;51.554;6.736;2023-12-04T07:11:56;11.10;;;6.75;;
37535;SDS011;23379;51.554;6.736;2023-12-04T07:14:21;9.40;;;6.28;;
37535;SDS011;23379;51.554;6.736;2023-12-04T07:16:46;15.00;;;7.68;;
37535;SDS011;23379;51.554;6.736;2023-12-04T07:19:12;11.23;;;6.68;;
37535;SDS011;23379;51.554;6.736;2023-12-04T07:21:39;10.85;;;6.15;;
37535;SDS011;23379;51.554;6.736;2023-12-04T07:24:06;12.52;;;7.05;;
37535;SDS011;23379;51.554;6.736;2023-12-04T07:26:33;14.75;;;7.43;;
37535;SDS011;23379;51.554;6.736;2023-12-04T07:28:59;11.23;;;7.40;;
37535;SDS011;23379;51.554;6.736;2023-12-04T07:31:25;11.20;;;6.70;;
37535;SDS011;23379;51.554;6.736;2023-12-04T07:33:52;13.82;;;7.55;;
37535;SDS011;23379;51.554;6.736;2023-12-04T07:36:21;10.88;;;6.35;;
37535;SDS011;23379;51.554;6.736;2023-12-04T07:38:47;11.25;;;6.97;;
37535;SDS011;23379;51.554;6.736;2023-12-04T07:41:12;11.02;;;7.18;;
37535;SDS011;23379;51.554;6.736;2023-12-04T07:43:38;11.00;;;6.78;;
37535;SDS011;23379;51.554;6.736;2023-12-04T07:46:04;9.77;;;6.13;;
37535;SDS011;23379;51.554;6.736;2023-12-04T07:48:30;10.23;;;6.78;;
37535;SDS011;23379;51.554;6.736;2023-12-04T07:50:56;9.82;;;6.45;;
37535;SDS011;23379;51.554;6.736;2023-12-04T07:53:21;13.30;;;6.47;;
37535;SDS011;23379;51.554;6.736;2023-12-04T07:55:47;12.02;;;6.82;;
37535;SDS011;23379;51.554;6.736;2023-12-04T07:58:14;9.32;;;6.38;;
37535;SDS011;23379;51.554;6.736;2023-12-04T08:00:40;11.52;;;6.90;;
37535;SDS011;23379;51.554;6.736;2023-12-04T08:03:05;12.85;;;6.95;;
37535;SDS011;23379;51.554;6.736;2023-12-04T08:05:32;11.57;;;7.18;;
37535;SDS011;23379;51.554;6.736;2023-12-04T08:07:57;14.70;;;7.35;;
37535;SDS011;23379;51.554;6.736;2023-12-04T08:10:22;10.13;;;6.10;;
37535;SDS011;23379;51.554;6.736;2023-12-04T08:12:48;10.32;;;6.60;;
37535;SDS011;23379;51.554;6.736;2023-12-04T08:15:13;9.82;;;5.82;;
37535;SDS011;23379;51.554;6.736;2023-12-04T08:17:39;14.60;;;6.93;;
37535;SDS011;23379;51.554;6.736;2023-12-04T08:20:05;10.90;;;6.70;;
37535;SDS011;23379;51.554;6.736;2023-12-04T08:22:31;9.65;;;6.13;;
37535;SDS011;23379;51.554;6.736;2023-12-04T08:24:57;13.23;;;7.65;;
37535;SDS011;23379;51.554;6.736;2023-12-04T08:27:23;11.45;;;6.47;;
37535;SDS011;23379;51.554;6.736;2023-12-04T08:29:49;13.60;;;7.13;;
37535;SDS011;23379;51.554;6.736;2023-12-04T08:32:14;10.55;;;7.22;;
37535;SDS011;23379;51.554;6.736;2023-12-04T08:34:39;8.93;;;6.30;;
37535;SDS011;23379;51.554;6.736;2023-12-04T08:37:05;11.07;;;7.00;;
37535;SDS011;23379;51.554;6.736;2023-12-04T08:39:30;11.07;;;6.40;;
37535;SDS011;23379;51.554;6.736;2023-12-04T08:41:55;13.20;;;6.85;;
37535;SDS011;23379;51.554;6.736;2023-12-04T08:44:21;10.32;;;6.32;;
37535;SDS011;23379;51.554;6.736;2023-12-04T08:46:46;10.63;;;6.38;;
37535;SDS011;23379;51.554;6.736;2023-12-04T08:49:11;8.85;;;5.75;;
37535;SDS011;23379;51.554;6.736;2023-12-04T08:51:37;11.93;;;6.07;;
37535;SDS011;23379;51.554;6.736;2023-12-04T08:54:02;10.52;;;6.05;;
37535;SDS011;23379;51.554;6.736;2023-12-04T08:56:28;8.32;;;5.60;;
37535;SDS011;23379;51.554;6.736;2023-12-04T08:58:54;9.60;;;5.95;;
37535;SDS011;23379;51.554;6.736;2023-12-04T09:01:19;9.75;;;5.95;;
37535;SDS011;23379;51.554;6.736;2023-12-04T09:03:45;7.95;;;5.88;;
37535;SDS011;23379;51.554;6.736;2023-12-04T09:06:10;13.02;;;6.38;;
37535;SDS011;23379;51.554;6.736;2023-12-04T09:08:36;9.40;;;5.75;;
37535;SDS011;23379;51.554;6.736;2023-12-04T09:11:01;12.05;;;5.80;;
37535;SDS011;23379;51.554;6.736;2023-12-04T09:13:28;9.27;;;5.95;;
37535;SDS011;23379;51.554;6.736;2023-12-04T09:15:55;7.72;;;5.35;;
37535;SDS011;23379;51.554;6.736;2023-12-04T09:18:20;10.63;;;5.30;;
37535;SDS011;23379;51.554;6.736;2023-12-04T09:20:45;11.82;;;5.65;;
37535;SDS011;23379;51.554;6.736;2023-12-04T09:23:11;8.18;;;5.53;;
37535;SDS011;23379;51.554;6.736;2023-12-04T09:25:37;8.73;;;5.78;;
37535;SDS011;23379;51.554;6.736;2023-12-04T09:28:02;7.88;;;5.18;;
37535;SDS011;23379;51.554;6.736;2023-12-04T09:30:28;10.38;;;5.15;;
37535;SDS011;23379;51.554;6.736;2023-12-04T09:32:53;9.02;;;5.15;;
37535;SDS011;23379;51.554;6.736;2023-12-04T09:35:19;8.27;;;4.55;;
37535;SDS011;23379;51.554;6.736;2023-12-04T09:37:44;7.82;;;5.35;;
37535;SDS011;23379;51.554;6.736;2023-12-04T09:40:11;7.10;;;4.60;;
37535;SDS011;23379;51.554;6.736;2023-12-04T09:42:37;9.10;;;6.03;;
37535;SDS011;23379;51.554;6.736;2023-12-04T09:45:04;6.30;;;4.85;;
37535;SDS011;23379;51.554;6.736;2023-12-04T09:47:30;6.13;;;4.53;;
37535;SDS011;23379;51.554;6.736;2023-12-04T09:49:57;9.38;;;5.30;;
37535;SDS011;23379;51.554;6.736;2023-12-04T09:52:23;8.15;;;4.78;;
37535;SDS011;23379;51.554;6.736;2023-12-04T09:54:50;8.07;;;4.88;;
37535;SDS011;23379;51.554;6.736;2023-12-04T09:57:16;12.48;;;4.82;;
37535;SDS011;23379;51.554;6.736;2023-12-04T09:59:41;8.35;;;4.88;;
37535;SDS011;23379;51.554;6.736;2023-12-04T10:02:09;6.40;;;4.57;;
37535;SDS011;23379;51.554;6.736;2023-12-04T10:04:34;7.20;;;4.38;;
37535;SDS011;23379;51.554;6.736;2023-12-04T10:07:00;6.35;;;4.53;;
37535;SDS011;23379;51.554;6.736;2023-12-04T10:09:26;6.82;;;4.28;;
37535;SDS011;23379;51.554;6.736;2023-12-04T10:11:51;6.45;;;4.82;;
37535;SDS011;23379;51.554;6.736;2023-12-04T10:14:17;7.30;;;4.55;;
37535;SDS011;23379;51.554;6.736;2023-12-04T10:16:45;6.13;;;4.38;;
37535;SDS011;23379;51.554;6.736;2023-12-04T10:19:28;6.90;;;4.88;;
37535;SDS011;23379;51.554;6.736;2023-12-04T10:21:55;6.70;;;4.50;;
37535;SDS011;23379;51.554;6.736;2023-12-04T10:27:00;10.10;;;4.72;;
37535;SDS011;23379;51.554;6.736;2023-12-04T10:29:40;9.30;;;5.57;;
37535;SDS011;23379;51.554;6.736;2023-12-04T10:32:10;8.15;;;4.80;;
37535;SDS011;23379;51.554;6.736;2023-12-04T10:34:36;7.20;;;4.35;;
37535;SDS011;23379;51.554;6.736;2023-12-04T10:37:02;7.50;;;5.00;;
37535;SDS011;23379;51.554;6.736;2023-12-04T10:39:29;6.85;;;4.70;;
37535;SDS011;23379;51.554;6.736;2023-12-04T10:41:59;9.95;;;4.82;;
37535;SDS011;23379;51.554;6.736;2023-12-04T10:44:28;8.68;;;4.90;;
37535;SDS011;23379;51.554;6.736;2023-12-04T10:46:59;7.53;;;4.65;;
37535;SDS011;23379;51.554;6.736;2023-12-04T10:49:26;5.87;;;4.60;;
37535;SDS011;23379;51.554;6.736;2023-12-04T10:51:55;6.63;;;4.75;;
37535;SDS011;23379;51.554;6.736;2023-12-04T10:54:22;5.60;;;4.43;;
37535;SDS011;23379;51.554;6.736;2023-12-04T10:56:48;8.43;;;4.78;;
37535;SDS011;23379;51.554;6.736;2023-12-04T10:59:18;5.95;;;4.43;;
37535;SDS011;23379;51.554;6.736;2023-12-04T11:01:50;6.75;;;4.95;;
37535;SDS011;23379;51.554;6.736;2023-12-04T11:04:19;8.18;;;5.40;;
37535;SDS011;23379;51.554;6.736;2023-12-04T11:06:47;10.82;;;4.70;;
37535;SDS011;23379;51.554;6.736;2023-12-04T11:09:16;8.75;;;5.15;;
37535;SDS011;23379;51.554;6.736;2023-12-04T11:11:43;7.18;;;4.85;;
37535;SDS011;23379;51.554;6.736;2023-12-04T11:14:13;9.60;;;5.50;;
37535;SDS011;23379;51.554;6.736;2023-12-04T11:16:47;8.35;;;5.13;;
37535;SDS011;23379;51.554;6.736;2023-12-04T11:19:25;6.03;;;4.78;;
37535;SDS011;23379;51.554;6.736;2023-12-04T11:21:56;7.82;;;5.18;;
37535;SDS011;23379;51.554;6.736;2023-12-04T11:24:23;8.90;;;5.10;;
37535;SDS011;23379;51.554;6.736;2023-12-04T11:26:49;9.65;;;5.80;;
37535;SDS011;23379;51.554;6.736;2023-12-04T11:29:15;11.27;;;4.95;;
37535;SDS011;23379;51.554;6.736;2023-12-04T11:31:42;8.98;;;5.18;;
37535;SDS011;23379;51.554;6.736;2023-12-04T11:34:08;8.68;;;5.25;;
37535;SDS011;23379;51.554;6.736;2023-12-04T11:36:34;9.13;;;5.68;;
37535;SDS011;23379;51.554;6.736;2023-12-04T11:39:00;9.93;;;4.90;;
37535;SDS011;23379;51.554;6.736;2023-12-04T11:41:26;8.60;;;5.20;;
37535;SDS011;23379;51.554;6.736;2023-12-04T11:43:52;13.45;;;5.82;;
37535;SDS011;23379;51.554;6.736;2023-12-04T11:46:24;8.18;;;5.20;;
37535;SDS011;23379;51.554;6.736;2023-12-04T11:48:51;7.80;;;5.53;;
37535;SDS011;23379;51.554;6.736;2023-12-04T11:54:03;8.80;;;5.45;;
37535;SDS011;23379;51.554;6.736;2023-12-04T11:56:30;7.97;;;5.60;;
37535;SDS011;23379;51.554;6.736;2023-12-04T11:59:02;7.82;;;5.63;;
37535;SDS011;23379;51.554;6.736;2023-12-04T12:01:37;10.18;;;6.43;;
37535;SDS011;23379;51.554;6.736;2023-12-04T12:04:06;12.30;;;6.55;;
37535;SDS011;23379;51.554;6.736;2023-12-04T12:06:32;10.48;;;6.57;;
37535;SDS011;23379;51.554;6.736;2023-12-04T12:08:57;9.32;;;6.13;;
37535;SDS011;23379;51.554;6.736;2023-12-04T12:11:23;10.73;;;6.80;;
37535;SDS011;23379;51.554;6.736;2023-12-04T12:13:49;9.75;;;6.53;;
37535;SDS011;23379;51.554;6.736;2023-12-04T12:16:14;10.90;;;6.18;;
37535;SDS011;23379;51.554;6.736;2023-12-04T12:18:40;11.50;;;6.50;;
37535;SDS011;23379;51.554;6.736;2023-12-04T12:21:06;11.43;;;6.93;;
37535;SDS011;23379;51.554;6.736;2023-12-04T12:23:32;10.88;;;6.80;;
37535;SDS011;23379;51.554;6.736;2023-12-04T12:25:59;8.98;;;6.20;;
37535;SDS011;23379;51.554;6.736;2023-12-04T12:28:25;13.32;;;6.35;;
37535;SDS011;23379;51.554;6.736;2023-12-04T12:30:50;8.48;;;5.82;;
37535;SDS011;23379;51.554;6.736;2023-12-04T12:33:17;8.63;;;6.15;;
37535;SDS011;23379;51.554;6.736;2023-12-04T12:35:44;9.50;;;6.28;;
37535;SDS011;23379;51.554;6.736;2023-12-04T12:38:10;10.57;;;6.70;;
37535;SDS011;23379;51.554;6.736;2023-12-04T12:40:35;9.80;;;6.38;;
37535;SDS011;23379;51.554;6.736;2023-12-04T12:43:04;12.77;;;6.43;;
37535;SDS011;23379;51.554;6.736;2023-12-04T12:45:40;12.18;;;6.50;;
37535;SDS011;23379;51.554;6.736;2023-12-04T12:48:15;9.70;;;6.35;;
37535;SDS011;23379;51.554;6.736;2023-12-04T12:50:42;10.32;;;6.07;;
37535;SDS011;23379;51.554;6.736;2023-12-04T12:53:08;9.90;;;6.47;;
37535;SDS011;23379;51.554;6.736;2023-12-04T12:55:33;10.90;;;6.90;;
37535;SDS011;23379;51.554;6.736;2023-12-04T12:58:03;10.32;;;6.30;;
37535;SDS011;23379;51.554;6.736;2023-12-04T13:00:30;10.48;;;6.88;;
37535;SDS011;23379;51.554;6.736;2023-12-04T13:02:57;12.75;;;6.60;;
37535;SDS011;23379;51.554;6.736;2023-12-04T13:05:22;11.35;;;6.88;;
37535;SDS011;23379;51.554;6.736;2023-12-04T13:07:48;12.13;;;6.57;;
37535;SDS011;23379;51.554;6.736;2023-12-04T13:10:13;11.23;;;6.82;;
37535;SDS011;23379;51.554;6.736;2023-12-04T13:12:39;12.43;;;7.32;;
37535;SDS011;23379;51.554;6.736;2023-12-04T13:15:05;12.30;;;7.00;;
37535;SDS011;23379;51.554;6.736;2023-12-04T13:17:31;9.15;;;6.32;;
37535;SDS011;23379;51.554;6.736;2023-12-04T13:19:56;11.80;;;6.43;;
37535;SDS011;23379;51.554;6.736;2023-12-04T13:22:22;10.48;;;7.15;;
37535;SDS011;23379;51.554;6.736;2023-12-04T13:24:47;9.85;;;6.38;;
37535;SDS011;23379;51.554;6.736;2023-12-04T13:27:13;10.43;;;6.50;;
37535;SDS011;23379;51.554;6.736;2023-12-04T13:29:38;10.45;;;6.57;;
37535;SDS011;23379;51.554;6.736;2023-12-04T13:32:04;10.45;;;6.78;;
37535;SDS011;23379;51.554;6.736;2023-12-04T13:34:30;9.90;;;6.47;;
37535;SDS011;23379;51.554;6.736;2023-12-04T13:36:55;12.68;;;6.85;;
37535;SDS011;23379;51.554;6.736;2023-12-04T13:39:21;9.02;;;6.57;;
37535;SDS011;23379;51.554;6.736;2023-12-04T13:41:52;11.55;;;6.82;;
37535;SDS011;23379;51.554;6.736;2023-12-04T13:44:36;11.65;;;6.88;;
37535;SDS011;23379;51.554;6.736;2023-12-04T13:47:02;11.77;;;6.85;;
37535;SDS011;23379;51.554;6.736;2023-12-04T13:49:28;9.20;;;6.50;;
37535;SDS011;23379;51.554;6.736;2023-12-04T13:51:53;12.50;;;6.40;;
37535;SDS011;23379;51.554;6.736;2023-12-04T13:54:19;9.45;;;6.18;;
37535;SDS011;23379;51.554;6.736;2023-12-04T13:56:47;10.02;;;6.45;;
37535;SDS011;23379;51.554;6.736;2023-12-04T13:59:21;12.02;;;6.95;;
37535;SDS011;23379;51.554;6.736;2023-12-04T14:01:48;12.40;;;6.28;;
37535;SDS011;23379;51.554;6.736;2023-12-04T14:04:20;13.35;;;6.72;;
37535;SDS011;23379;51.554;6.736;2023-12-04T14:06:48;9.40;;;5.85;;
37535;SDS011;23379;51.554;6.736;2023-12-04T14:09:14;12.43;;;6.38;;
37535;SDS011;23379;51.554;6.736;2023-12-04T14:11:42;10.32;;;6.35;;
37535;SDS011;23379;51.554;6.736;2023-12-04T14:14:09;10.73;;;5.95;;
37535;SDS011;23379;51.554;6.736;2023-12-04T14:16:35;9.48;;;5.80;;
37535;SDS011;23379;51.554;6.736;2023-12-04T14:19:00;9.00;;;5.70;;
37535;SDS011;23379;51.554;6.736;2023-12-04T14:21:26;9.13;;;5.65;;
37535;SDS011;23379;51.554;6.736;2023-12-04T14:23:53;7.05;;;5.38;;
37535;SDS011;23379;51.554;6.736;2023-12-04T14:26:18;9.10;;;6.20;;
37535;SDS011;23379;51.554;6.736;2023-12-04T14:28:44;10.25;;;6.03;;
37535;SDS011;23379;51.554;6.736;2023-12-04T14:31:09;8.38;;;5.97;;
37535;SDS011;23379;51.554;6.736;2023-12-04T14:33:36;9.57;;;5.70;;
37535;SDS011;23379;51.554;6.736;2023-12-04T14:36:01;8.88;;;5.88;;
37535;SDS011;23379;51.554;6.736;2023-12-04T14:38:26;7.25;;;5.47;;
37535;SDS011;23379;51.554;6.736;2023-12-04T14:40:52;8.52;;;5.53;;
37535;SDS011;23379;51.554;6.736;2023-12-04T14:43:17;8.40;;;5.63;;